Adams, North Dakota
Current Conditions -  °F | °C
As of 8:35 PM on Wednesday 26 Nov 2014 (Local Time) from KD55 Reporting Station
Clear Clear  
Wind Chill: -26°   Ceiling: Unl
Heat Index: -26°   Visibility: 10mi
Dew Point: -29°   Wind: 0mph
Humidity: 77%   Direction: NA
Pressure: 30.44"   Gusts: NA
Location:  48.42°N, 98.08°W
Report Text: KD55 270235Z AUTO 00000KT 10SM CLR M26/M29 A3044 RMK AO2
Loading
Personal Weather Stations






























Interactive Weather Map New forecast layout! Learn more

10-Day Weather Forecast

Advertisements
Track Severe Weather on mobile